sensor_id;sensor_type;location;lat;lon;timestamp;pressure;altitude;pressure_sealevel;temperature;humidity
54270;BME280;40181;51.560;13.000;2024-02-21T00:01:06;101302.22;;;8.02;88.20
54270;BME280;40181;51.560;13.000;2024-02-21T00:03:35;101307.63;;;8.08;87.62
54270;BME280;40181;51.560;13.000;2024-02-21T00:06:04;101301.53;;;8.08;87.48
54270;BME280;40181;51.560;13.000;2024-02-21T00:08:33;101304.47;;;8.17;87.56
54270;BME280;40181;51.560;13.000;2024-02-21T00:11:05;101292.22;;;7.92;88.56
54270;BME280;40181;51.560;13.000;2024-02-21T00:13:34;101295.63;;;8.13;87.94
54270;BME280;40181;51.560;13.000;2024-02-21T00:16:04;101284.69;;;8.01;88.55
54270;BME280;40181;51.560;13.000;2024-02-21T00:18:33;101302.25;;;7.79;89.07
54270;BME280;40181;51.560;13.000;2024-02-21T00:21:02;101289.31;;;8.08;88.28
54270;BME280;40181;51.560;13.000;2024-02-21T00:23:32;101283.81;;;8.00;88.48
54270;BME280;40181;51.560;13.000;2024-02-21T00:26:01;101279.97;;;7.91;89.02
54270;BME280;40181;51.560;13.000;2024-02-21T00:28:33;101282.72;;;7.94;88.61
54270;BME280;40181;51.560;13.000;2024-02-21T00:31:03;101279.03;;;7.88;89.41
54270;BME280;40181;51.560;13.000;2024-02-21T00:33:32;101276.50;;;7.66;90.03
54270;BME280;40181;51.560;13.000;2024-02-21T00:36:01;101277.91;;;8.06;88.75
54270;BME280;40181;51.560;13.000;2024-02-21T00:38:30;101264.47;;;8.21;87.80
54270;BME280;40181;51.560;13.000;2024-02-21T00:40:59;101265.13;;;7.89;89.21
54270;BME280;40181;51.560;13.000;2024-02-21T00:43:28;101263.50;;;7.93;89.29
54270;BME280;40181;51.560;13.000;2024-02-21T00:46:02;101256.41;;;7.89;89.02
54270;BME280;40181;51.560;13.000;2024-02-21T00:48:34;101257.88;;;7.82;89.80
54270;BME280;40181;51.560;13.000;2024-02-21T00:51:03;101250.94;;;7.83;90.03
54270;BME280;40181;51.560;13.000;2024-02-21T00:53:33;101257.59;;;7.99;88.96
54270;BME280;40181;51.560;13.000;2024-02-21T00:56:04;101265.88;;;7.87;89.21
54270;BME280;40181;51.560;13.000;2024-02-21T00:58:33;101247.34;;;8.05;88.63
54270;BME280;40181;51.560;13.000;2024-02-21T01:01:05;101253.03;;;7.93;89.56
54270;BME280;40181;51.560;13.000;2024-02-21T01:03:34;101253.47;;;8.06;89.02
54270;BME280;40181;51.560;13.000;2024-02-21T01:06:03;101255.22;;;7.81;89.19
54270;BME280;40181;51.560;13.000;2024-02-21T01:08:32;101243.34;;;7.91;89.33
54270;BME280;40181;51.560;13.000;2024-02-21T01:11:02;101239.34;;;8.00;89.25
54270;BME280;40181;51.560;13.000;2024-02-21T01:13:31;101242.38;;;8.13;88.51
54270;BME280;40181;51.560;13.000;2024-02-21T01:16:00;101242.03;;;7.78;90.36
54270;BME280;40181;51.560;13.000;2024-02-21T01:18:32;101242.84;;;7.77;90.68
54270;BME280;40181;51.560;13.000;2024-02-21T01:21:01;101238.72;;;8.08;89.45
54270;BME280;40181;51.560;13.000;2024-02-21T01:23:32;101236.47;;;7.93;89.53
54270;BME280;40181;51.560;13.000;2024-02-21T01:26:01;101229.00;;;7.79;89.86
54270;BME280;40181;51.560;13.000;2024-02-21T01:28:33;101230.47;;;7.71;90.51
54270;BME280;40181;51.560;13.000;2024-02-21T01:31:03;101223.53;;;7.73;90.22
54270;BME280;40181;51.560;13.000;2024-02-21T01:33:35;101222.75;;;8.00;89.75
54270;BME280;40181;51.560;13.000;2024-02-21T01:36:04;101218.81;;;7.63;91.09
54270;BME280;40181;51.560;13.000;2024-02-21T01:38:34;101210.81;;;7.58;91.34
54270;BME280;40181;51.560;13.000;2024-02-21T01:41:03;101216.75;;;7.78;90.81
54270;BME280;40181;51.560;13.000;2024-02-21T01:43:32;101219.66;;;7.61;91.36
54270;BME280;40181;51.560;13.000;2024-02-21T01:46:01;101212.31;;;7.75;90.99
54270;BME280;40181;51.560;13.000;2024-02-21T01:48:31;101201.63;;;7.69;90.57
54270;BME280;40181;51.560;13.000;2024-02-21T01:51:04;101200.41;;;7.59;91.37
54270;BME280;40181;51.560;13.000;2024-02-21T01:53:36;101203.94;;;7.86;90.50
54270;BME280;40181;51.560;13.000;2024-02-21T01:56:08;101197.81;;;7.59;91.54
54270;BME280;40181;51.560;13.000;2024-02-21T01:58:39;101191.28;;;7.72;90.98
54270;BME280;40181;51.560;13.000;2024-02-21T02:01:09;101189.88;;;7.56;91.41
54270;BME280;40181;51.560;13.000;2024-02-21T02:03:42;101192.81;;;7.66;90.59
54270;BME280;40181;51.560;13.000;2024-02-21T02:06:11;101193.59;;;7.39;91.92
54270;BME280;40181;51.560;13.000;2024-02-21T02:08:41;101184.22;;;7.70;91.35
54270;BME280;40181;51.560;13.000;2024-02-21T02:11:13;101175.66;;;7.50;91.74
54270;BME280;40181;51.560;13.000;2024-02-21T02:13:42;101180.19;;;7.54;90.87
54270;BME280;40181;51.560;13.000;2024-02-21T02:16:11;101174.09;;;7.55;91.51
54270;BME280;40181;51.560;13.000;2024-02-21T02:18:43;101177.72;;;7.58;91.54
54270;BME280;40181;51.560;13.000;2024-02-21T02:21:23;101165.88;;;7.44;91.80
54270;BME280;40181;51.560;13.000;2024-02-21T02:23:59;101163.03;;;7.38;92.35
54270;BME280;40181;51.560;13.000;2024-02-21T02:26:28;101171.50;;;7.55;91.96
54270;BME280;40181;51.560;13.000;2024-02-21T02:28:57;101159.78;;;7.43;92.45
54270;BME280;40181;51.560;13.000;2024-02-21T02:31:26;101140.91;;;7.28;93.15
54270;BME280;40181;51.560;13.000;2024-02-21T02:33:55;101136.88;;;7.13;94.95
54270;BME280;40181;51.560;13.000;2024-02-21T02:36:24;101134.69;;;7.24;94.58
54270;BME280;40181;51.560;13.000;2024-02-21T02:38:53;101136.69;;;7.31;95.17
54270;BME280;40181;51.560;13.000;2024-02-21T02:41:25;101128.84;;;7.07;96.66
54270;BME280;40181;51.560;13.000;2024-02-21T02:43:54;101124.13;;;7.47;95.01
54270;BME280;40181;51.560;13.000;2024-02-21T02:46:23;101127.59;;;7.46;95.06
54270;BME280;40181;51.560;13.000;2024-02-21T02:48:52;101111.84;;;7.18;95.37
54270;BME280;40181;51.560;13.000;2024-02-21T02:51:21;101114.44;;;7.18;94.81
54270;BME280;40181;51.560;13.000;2024-02-21T02:53:50;101114.50;;;7.44;94.50
54270;BME280;40181;51.560;13.000;2024-02-21T02:56:19;101116.81;;;7.37;94.33
54270;BME280;40181;51.560;13.000;2024-02-21T02:58:50;101110.59;;;7.57;93.71
54270;BME280;40181;51.560;13.000;2024-02-21T03:01:19;101099.19;;;7.31;94.20
54270;BME280;40181;51.560;13.000;2024-02-21T03:03:48;101122.31;;;7.20;93.99
54270;BME280;40181;51.560;13.000;2024-02-21T03:06:17;101107.81;;;7.53;92.82
54270;BME280;40181;51.560;13.000;2024-02-21T03:08:46;101103.06;;;7.42;92.33
54270;BME280;40181;51.560;13.000;2024-02-21T03:11:20;101098.84;;;7.46;92.97
54270;BME280;40181;51.560;13.000;2024-02-21T03:13:56;101104.88;;;7.43;92.48
54270;BME280;40181;51.560;13.000;2024-02-21T03:16:25;101104.13;;;7.47;92.07
54270;BME280;40181;51.560;13.000;2024-02-21T03:18:54;101094.56;;;7.48;92.68
54270;BME280;40181;51.560;13.000;2024-02-21T03:21:23;101099.47;;;7.65;91.85
54270;BME280;40181;51.560;13.000;2024-02-21T03:23:52;101094.81;;;7.56;92.01
54270;BME280;40181;51.560;13.000;2024-02-21T03:26:21;101094.06;;;7.58;91.87
54270;BME280;40181;51.560;13.000;2024-02-21T03:28:50;101095.59;;;7.53;91.96
54270;BME280;40181;51.560;13.000;2024-02-21T03:31:22;101104.41;;;7.31;92.82
54270;BME280;40181;51.560;13.000;2024-02-21T03:33:51;101102.09;;;7.39;92.70
54270;BME280;40181;51.560;13.000;2024-02-21T03:36:20;101094.50;;;7.46;92.39
54270;BME280;40181;51.560;13.000;2024-02-21T03:38:49;101097.03;;;7.43;92.98
54270;BME280;40181;51.560;13.000;2024-02-21T03:41:18;101101.50;;;7.47;92.65
54270;BME280;40181;51.560;13.000;2024-02-21T03:43:47;101111.38;;;7.30;92.84
54270;BME280;40181;51.560;13.000;2024-02-21T03:46:16;101113.84;;;7.26;93.69
54270;BME280;40181;51.560;13.000;2024-02-21T03:48:48;101106.03;;;7.27;93.28
54270;BME280;40181;51.560;13.000;2024-02-21T03:51:17;101105.41;;;7.34;93.57
54270;BME280;40181;51.560;13.000;2024-02-21T03:53:46;101103.13;;;7.44;92.81
54270;BME280;40181;51.560;13.000;2024-02-21T03:56:15;101107.34;;;7.40;93.24
54270;BME280;40181;51.560;13.000;2024-02-21T03:58:44;101107.84;;;7.54;92.75
54270;BME280;40181;51.560;13.000;2024-02-21T04:01:15;101108.41;;;7.45;93.29
54270;BME280;40181;51.560;13.000;2024-02-21T04:03:44;101112.41;;;7.36;93.57
54270;BME280;40181;51.560;13.000;2024-02-21T04:06:15;101107.94;;;7.31;93.74
54270;BME280;40181;51.560;13.000;2024-02-21T04:08:45;101100.97;;;7.56;92.65
54270;BME280;40181;51.560;13.000;2024-02-21T04:11:14;101090.84;;;7.41;93.71
54270;BME280;40181;51.560;13.000;2024-02-21T04:13:44;101098.94;;;7.23;93.97
54270;BME280;40181;51.560;13.000;2024-02-21T04:16:15;101099.09;;;7.28;94.50
54270;BME280;40181;51.560;13.000;2024-02-21T04:18:44;101099.94;;;7.02;93.91
54270;BME280;40181;51.560;13.000;2024-02-21T04:21:16;101082.97;;;7.40;93.25
54270;BME280;40181;51.560;13.000;2024-02-21T04:23:46;101088.19;;;7.15;93.50
54270;BME280;40181;51.560;13.000;2024-02-21T04:26:15;101084.28;;;7.53;93.40
54270;BME280;40181;51.560;13.000;2024-02-21T04:28:44;101088.28;;;7.43;93.75
54270;BME280;40181;51.560;13.000;2024-02-21T04:31:13;101081.81;;;7.57;92.68
54270;BME280;40181;51.560;13.000;2024-02-21T04:33:42;101082.75;;;7.59;93.44
54270;BME280;40181;51.560;13.000;2024-02-21T04:36:14;101082.63;;;7.30;93.33
54270;BME280;40181;51.560;13.000;2024-02-21T04:38:43;101079.34;;;7.62;92.99
54270;BME280;40181;51.560;13.000;2024-02-21T04:41:12;101082.84;;;7.37;93.81
54270;BME280;40181;51.560;13.000;2024-02-21T04:43:41;101065.63;;;7.17;94.57
54270;BME280;40181;51.560;13.000;2024-02-21T04:46:10;101065.38;;;7.36;94.43
54270;BME280;40181;51.560;13.000;2024-02-21T04:48:40;101071.50;;;7.36;94.35
54270;BME280;40181;51.560;13.000;2024-02-21T04:51:11;101061.16;;;7.39;94.67
54270;BME280;40181;51.560;13.000;2024-02-21T04:53:42;101070.97;;;7.46;94.40
54270;BME280;40181;51.560;13.000;2024-02-21T04:56:12;101059.00;;;7.53;93.85
54270;BME280;40181;51.560;13.000;2024-02-21T04:58:41;101058.38;;;7.34;95.02
54270;BME280;40181;51.560;13.000;2024-02-21T05:01:10;101047.53;;;7.48;93.91
54270;BME280;40181;51.560;13.000;2024-02-21T05:03:39;101051.84;;;7.47;94.04
54270;BME280;40181;51.560;13.000;2024-02-21T05:06:08;101028.56;;;7.55;93.87
54270;BME280;40181;51.560;13.000;2024-02-21T05:08:39;101028.47;;;7.26;95.21
54270;BME280;40181;51.560;13.000;2024-02-21T05:11:08;101016.03;;;7.45;94.40
54270;BME280;40181;51.560;13.000;2024-02-21T05:13:37;101014.41;;;7.48;94.30
54270;BME280;40181;51.560;13.000;2024-02-21T05:16:06;101019.78;;;7.27;94.22
54270;BME280;40181;51.560;13.000;2024-02-21T05:18:36;101007.56;;;7.52;93.59
54270;BME280;40181;51.560;13.000;2024-02-21T05:21:05;101007.63;;;7.55;93.35
54270;BME280;40181;51.560;13.000;2024-02-21T05:23:34;100997.47;;;7.37;93.57
54270;BME280;40181;51.560;13.000;2024-02-21T05:26:07;100996.63;;;7.38;94.20
54270;BME280;40181;51.560;13.000;2024-02-21T05:28:36;100997.41;;;7.61;93.34
54270;BME280;40181;51.560;13.000;2024-02-21T05:31:05;100994.94;;;7.39;93.73
54270;BME280;40181;51.560;13.000;2024-02-21T05:33:34;100991.16;;;7.30;94.93
54270;BME280;40181;51.560;13.000;2024-02-21T05:36:04;100999.41;;;7.43;93.59
54270;BME280;40181;51.560;13.000;2024-02-21T05:38:33;100990.31;;;7.57;93.22
54270;BME280;40181;51.560;13.000;2024-02-21T05:41:03;100978.06;;;7.56;93.42
54270;BME280;40181;51.560;13.000;2024-02-21T05:43:34;100975.97;;;7.46;93.63
54270;BME280;40181;51.560;13.000;2024-02-21T05:46:03;100965.72;;;7.52;93.77
54270;BME280;40181;51.560;13.000;2024-02-21T05:48:32;100971.00;;;7.54;93.41
54270;BME280;40181;51.560;13.000;2024-02-21T05:51:02;100973.03;;;7.35;93.62
54270;BME280;40181;51.560;13.000;2024-02-21T05:53:31;100980.63;;;7.55;92.82
54270;BME280;40181;51.560;13.000;2024-02-21T05:56:01;100979.72;;;7.54;93.09
54270;BME280;40181;51.560;13.000;2024-02-21T05:58:33;100977.75;;;7.47;93.80
54270;BME280;40181;51.560;13.000;2024-02-21T06:01:03;100989.19;;;7.51;93.78
54270;BME280;40181;51.560;13.000;2024-02-21T06:03:32;100993.00;;;7.60;93.35
54270;BME280;40181;51.560;13.000;2024-02-21T06:06:02;100974.16;;;7.71;93.06
54270;BME280;40181;51.560;13.000;2024-02-21T06:08:32;100983.72;;;7.43;95.01
54270;BME280;40181;51.560;13.000;2024-02-21T06:11:01;100975.59;;;7.61;93.73
54270;BME280;40181;51.560;13.000;2024-02-21T06:13:32;100987.81;;;7.34;95.52
54270;BME280;40181;51.560;13.000;2024-02-21T06:16:06;100990.63;;;7.68;94.19
54270;BME280;40181;51.560;13.000;2024-02-21T06:18:36;100994.78;;;7.61;94.42
54270;BME280;40181;51.560;13.000;2024-02-21T06:21:05;100984.94;;;7.54;94.90
54270;BME280;40181;51.560;13.000;2024-02-21T06:23:37;100972.00;;;7.57;94.80
54270;BME280;40181;51.560;13.000;2024-02-21T06:26:05;100978.84;;;7.54;94.73
54270;BME280;40181;51.560;13.000;2024-02-21T06:28:37;100982.22;;;7.77;93.83
54270;BME280;40181;51.560;13.000;2024-02-21T06:31:06;100982.94;;;7.45;95.02
54270;BME280;40181;51.560;13.000;2024-02-21T06:33:35;100978.31;;;7.64;94.44
54270;BME280;40181;51.560;13.000;2024-02-21T06:36:05;100982.63;;;7.64;94.70
54270;BME280;40181;51.560;13.000;2024-02-21T06:38:34;100978.50;;;7.43;95.39
54270;BME280;40181;51.560;13.000;2024-02-21T06:41:03;100978.06;;;7.56;95.17
54270;BME280;40181;51.560;13.000;2024-02-21T06:43:32;100995.69;;;7.62;94.63
54270;BME280;40181;51.560;13.000;2024-02-21T06:46:04;101001.84;;;7.64;94.35
54270;BME280;40181;51.560;13.000;2024-02-21T06:48:33;101015.19;;;7.46;95.03
54270;BME280;40181;51.560;13.000;2024-02-21T06:51:02;101013.44;;;7.72;94.54
54270;BME280;40181;51.560;13.000;2024-02-21T06:53:31;101010.22;;;7.54;95.71
54270;BME280;40181;51.560;13.000;2024-02-21T06:56:00;101015.31;;;7.49;95.51
54270;BME280;40181;51.560;13.000;2024-02-21T06:58:29;101012.41;;;7.41;95.64
54270;BME280;40181;51.560;13.000;2024-02-21T07:00:58;101007.94;;;7.65;95.46
54270;BME280;40181;51.560;13.000;2024-02-21T07:03:30;101009.94;;;7.72;94.65
54270;BME280;40181;51.560;13.000;2024-02-21T07:05:59;101015.91;;;7.68;94.35
54270;BME280;40181;51.560;13.000;2024-02-21T07:08:28;101012.69;;;7.77;94.16
54270;BME280;40181;51.560;13.000;2024-02-21T07:10:57;101006.97;;;7.61;94.44
54270;BME280;40181;51.560;13.000;2024-02-21T07:13:26;101007.50;;;7.51;94.99
54270;BME280;40181;51.560;13.000;2024-02-21T07:15:55;101001.06;;;7.67;94.72
54270;BME280;40181;51.560;13.000;2024-02-21T07:18:24;101001.03;;;7.39;95.43
54270;BME280;40181;51.560;13.000;2024-02-21T07:20:56;100998.44;;;7.67;95.14
54270;BME280;40181;51.560;13.000;2024-02-21T07:23:25;101002.72;;;7.65;95.37
54270;BME280;40181;51.560;13.000;2024-02-21T07:25:54;101001.22;;;7.71;94.65
54270;BME280;40181;51.560;13.000;2024-02-21T07:28:23;101005.53;;;7.71;94.86
54270;BME280;40181;51.560;13.000;2024-02-21T07:30:52;101011.16;;;7.56;95.86
54270;BME280;40181;51.560;13.000;2024-02-21T07:33:21;101007.75;;;7.58;95.97
54270;BME280;40181;51.560;13.000;2024-02-21T07:35:50;101015.31;;;7.77;95.17
54270;BME280;40181;51.560;13.000;2024-02-21T07:38:22;101024.28;;;7.57;95.16
54270;BME280;40181;51.560;13.000;2024-02-21T07:40:51;101022.22;;;7.74;95.68
54270;BME280;40181;51.560;13.000;2024-02-21T07:43:20;101032.53;;;7.44;97.11
54270;BME280;40181;51.560;13.000;2024-02-21T07:45:51;101030.38;;;7.56;96.59
54270;BME280;40181;51.560;13.000;2024-02-21T07:48:21;101026.31;;;7.66;96.40
54270;BME280;40181;51.560;13.000;2024-02-21T07:50:51;101014.22;;;7.70;95.69
54270;BME280;40181;51.560;13.000;2024-02-21T07:53:23;101010.06;;;7.49;96.39
54270;BME280;40181;51.560;13.000;2024-02-21T07:55:52;101015.69;;;7.61;95.81
54270;BME280;40181;51.560;13.000;2024-02-21T07:58:21;101007.22;;;7.69;95.36
54270;BME280;40181;51.560;13.000;2024-02-21T08:00:50;101000.53;;;7.79;95.07
54270;BME280;40181;51.560;13.000;2024-02-21T08:03:19;101008.56;;;7.83;95.23
54270;BME280;40181;51.560;13.000;2024-02-21T08:05:50;101003.69;;;7.67;95.99
54270;BME280;40181;51.560;13.000;2024-02-21T08:08:19;101003.34;;;7.83;94.61
54270;BME280;40181;51.560;13.000;2024-02-21T08:10:51;101003.81;;;7.71;94.86
54270;BME280;40181;51.560;13.000;2024-02-21T08:13:20;100994.03;;;7.93;94.26
54270;BME280;40181;51.560;13.000;2024-02-21T08:15:49;100991.13;;;7.84;95.19
54270;BME280;40181;51.560;13.000;2024-02-21T08:18:18;100990.91;;;7.78;94.85
54270;BME280;40181;51.560;13.000;2024-02-21T08:20:47;100970.41;;;7.90;94.94
54270;BME280;40181;51.560;13.000;2024-02-21T08:23:18;100960.63;;;7.84;94.29
54270;BME280;40181;51.560;13.000;2024-02-21T08:25:50;100964.88;;;8.10;93.10
54270;BME280;40181;51.560;13.000;2024-02-21T08:28:19;100951.00;;;8.12;93.50
54270;BME280;40181;51.560;13.000;2024-02-21T08:30:47;100954.66;;;7.88;94.56
54270;BME280;40181;51.560;13.000;2024-02-21T08:33:16;100941.38;;;8.11;94.63
54270;BME280;40181;51.560;13.000;2024-02-21T08:35:49;100936.31;;;8.17;93.63
54270;BME280;40181;51.560;13.000;2024-02-21T08:38:19;100942.38;;;8.15;93.71
54270;BME280;40181;51.560;13.000;2024-02-21T08:40:51;100944.81;;;8.10;93.29
54270;BME280;40181;51.560;13.000;2024-02-21T08:43:20;100935.97;;;8.36;92.09
54270;BME280;40181;51.560;13.000;2024-02-21T08:45:49;100939.91;;;8.21;92.16
54270;BME280;40181;51.560;13.000;2024-02-21T08:48:18;100927.53;;;8.46;91.46
54270;BME280;40181;51.560;13.000;2024-02-21T08:50:48;100933.38;;;8.37;91.02
54270;BME280;40181;51.560;13.000;2024-02-21T08:53:17;100940.22;;;8.32;90.66
54270;BME280;40181;51.560;13.000;2024-02-21T08:55:46;100934.19;;;8.35;90.25
54270;BME280;40181;51.560;13.000;2024-02-21T08:58:18;100959.84;;;8.47;88.94
54270;BME280;40181;51.560;13.000;2024-02-21T09:00:48;100961.91;;;8.28;88.96
54270;BME280;40181;51.560;13.000;2024-02-21T09:03:17;100967.59;;;8.43;88.46
54270;BME280;40181;51.560;13.000;2024-02-21T09:05:46;100972.84;;;8.43;87.58
54270;BME280;40181;51.560;13.000;2024-02-21T09:08:15;100973.38;;;8.62;86.85
54270;BME280;40181;51.560;13.000;2024-02-21T09:10:44;100994.28;;;8.59;86.61
54270;BME280;40181;51.560;13.000;2024-02-21T09:13:13;100965.41;;;8.57;86.62
54270;BME280;40181;51.560;13.000;2024-02-21T09:15:45;100976.94;;;8.64;86.63
54270;BME280;40181;51.560;13.000;2024-02-21T09:18:15;100972.03;;;8.46;86.67
54270;BME280;40181;51.560;13.000;2024-02-21T09:20:44;100971.25;;;8.49;87.04
54270;BME280;40181;51.560;13.000;2024-02-21T09:23:13;100960.16;;;8.56;86.42
54270;BME280;40181;51.560;13.000;2024-02-21T09:25:44;100963.03;;;8.65;86.63
54270;BME280;40181;51.560;13.000;2024-02-21T09:28:13;100962.13;;;8.65;85.77
54270;BME280;40181;51.560;13.000;2024-02-21T09:30:45;100962.66;;;8.53;87.20
54270;BME280;40181;51.560;13.000;2024-02-21T09:33:14;100942.22;;;8.71;87.02
54270;BME280;40181;51.560;13.000;2024-02-21T09:35:43;100939.09;;;8.53;87.11
54270;BME280;40181;51.560;13.000;2024-02-21T09:38:12;100945.50;;;8.64;86.62
54270;BME280;40181;51.560;13.000;2024-02-21T09:40:41;100927.88;;;8.57;85.90
54270;BME280;40181;51.560;13.000;2024-02-21T09:43:10;100920.63;;;8.80;85.24
54270;BME280;40181;51.560;13.000;2024-02-21T09:45:41;100921.72;;;8.89;85.03
54270;BME280;40181;51.560;13.000;2024-02-21T09:48:26;100931.75;;;9.05;84.73
54270;BME280;40181;51.560;13.000;2024-02-21T09:51:01;100921.47;;;9.13;83.96
54270;BME280;40181;51.560;13.000;2024-02-21T09:53:32;100935.06;;;9.33;82.82
54270;BME280;40181;51.560;13.000;2024-02-21T09:56:02;100926.47;;;9.40;82.68
54270;BME280;40181;51.560;13.000;2024-02-21T09:58:33;100929.16;;;9.05;82.27
54270;BME280;40181;51.560;13.000;2024-02-21T10:01:04;100935.69;;;9.23;83.51
54270;BME280;40181;51.560;13.000;2024-02-21T10:03:34;100934.06;;;9.28;82.97
54270;BME280;40181;51.560;13.000;2024-02-21T10:06:03;100939.41;;;9.33;82.63
54270;BME280;40181;51.560;13.000;2024-02-21T10:08:33;100922.13;;;9.41;81.47
54270;BME280;40181;51.560;13.000;2024-02-21T10:11:02;100923.84;;;9.39;81.22
54270;BME280;40181;51.560;13.000;2024-02-21T10:13:34;100941.66;;;9.17;81.59
54270;BME280;40181;51.560;13.000;2024-02-21T10:16:07;100933.66;;;9.11;81.44
54270;BME280;40181;51.560;13.000;2024-02-21T10:18:36;100944.00;;;9.06;81.70
54270;BME280;40181;51.560;13.000;2024-02-21T10:21:06;100919.81;;;9.17;81.77
54270;BME280;40181;51.560;13.000;2024-02-21T10:23:42;100929.84;;;9.35;80.69
54270;BME280;40181;51.560;13.000;2024-02-21T10:26:12;100919.56;;;9.44;81.05
54270;BME280;40181;51.560;13.000;2024-02-21T10:28:39;100929.19;;;9.44;80.20
54270;BME280;40181;51.560;13.000;2024-02-21T10:31:22;100933.00;;;9.57;80.47
54270;BME280;40181;51.560;13.000;2024-02-21T10:33:55;100917.69;;;9.77;79.99
54270;BME280;40181;51.560;13.000;2024-02-21T10:36:25;100927.22;;;9.72;80.14
54270;BME280;40181;51.560;13.000;2024-02-21T10:38:55;100923.69;;;9.71;79.68
54270;BME280;40181;51.560;13.000;2024-02-21T10:41:24;100921.22;;;9.77;80.02
54270;BME280;40181;51.560;13.000;2024-02-21T10:43:54;100915.94;;;9.76;79.80
54270;BME280;40181;51.560;13.000;2024-02-21T10:46:27;100911.53;;;9.36;80.54
54270;BME280;40181;51.560;13.000;2024-02-21T10:49:03;100911.44;;;9.70;80.35
54270;BME280;40181;51.560;13.000;2024-02-21T10:51:43;100898.31;;;9.68;79.63
54270;BME280;40181;51.560;13.000;2024-02-21T10:54:24;100891.09;;;9.21;79.98
54270;BME280;40181;51.560;13.000;2024-02-21T10:57:16;100888.63;;;9.66;79.46
54270;BME280;40181;51.560;13.000;2024-02-21T10:59:46;100880.22;;;9.43;79.59
54270;BME280;40181;51.560;13.000;2024-02-21T11:02:19;100884.03;;;9.55;78.86
54270;BME280;40181;51.560;13.000;2024-02-21T11:04:49;100880.81;;;9.31;79.50
54270;BME280;40181;51.560;13.000;2024-02-21T11:07:19;100871.94;;;9.24;79.38
54270;BME280;40181;51.560;13.000;2024-02-21T11:09:52;100879.28;;;9.40;78.43
54270;BME280;40181;51.560;13.000;2024-02-21T11:12:23;100869.50;;;9.72;77.54
54270;BME280;40181;51.560;13.000;2024-02-21T11:14:52;100854.75;;;9.37;78.30
54270;BME280;40181;51.560;13.000;2024-02-21T11:17:34;100848.56;;;9.33;79.24
54270;BME280;40181;51.560;13.000;2024-02-21T11:20:12;100844.38;;;9.43;78.90
54270;BME280;40181;51.560;13.000;2024-02-21T11:22:42;100843.13;;;9.65;77.93
54270;BME280;40181;51.560;13.000;2024-02-21T11:25:21;100855.88;;;9.50;78.45
54270;BME280;40181;51.560;13.000;2024-02-21T11:27:59;100848.72;;;9.81;77.03
54270;BME280;40181;51.560;13.000;2024-02-21T11:30:30;100835.91;;;9.96;76.41
54270;BME280;40181;51.560;13.000;2024-02-21T11:33:05;100833.19;;;9.92;76.74
54270;BME280;40181;51.560;13.000;2024-02-21T11:35:36;100830.38;;;9.82;76.25
54270;BME280;40181;51.560;13.000;2024-02-21T11:38:10;100824.56;;;9.99;75.81
54270;BME280;40181;51.560;13.000;2024-02-21T11:40:43;100801.53;;;9.82;76.36
54270;BME280;40181;51.560;13.000;2024-02-21T11:43:13;100796.91;;;10.17;74.58
54270;BME280;40181;51.560;13.000;2024-02-21T11:45:42;100784.66;;;10.16;74.15
54270;BME280;40181;51.560;13.000;2024-02-21T11:48:14;100776.19;;;10.32;74.15
54270;BME280;40181;51.560;13.000;2024-02-21T11:50:52;100782.16;;;10.22;75.20
54270;BME280;40181;51.560;13.000;2024-02-21T11:53:22;100778.03;;;10.38;74.17
54270;BME280;40181;51.560;13.000;2024-02-21T11:55:56;100772.94;;;9.98;74.90
54270;BME280;40181;51.560;13.000;2024-02-21T11:58:25;100758.84;;;10.41;74.76
54270;BME280;40181;51.560;13.000;2024-02-21T12:00:56;100774.09;;;10.13;75.36
54270;BME280;40181;51.560;13.000;2024-02-21T12:03:27;100766.00;;;10.48;73.76
54270;BME280;40181;51.560;13.000;2024-02-21T12:05:57;100756.41;;;10.04;73.90
54270;BME280;40181;51.560;13.000;2024-02-21T12:08:26;100746.59;;;9.93;74.52
54270;BME280;40181;51.560;13.000;2024-02-21T12:10:55;100748.78;;;10.16;74.70
54270;BME280;40181;51.560;13.000;2024-02-21T12:13:24;100735.94;;;10.33;74.10
54270;BME280;40181;51.560;13.000;2024-02-21T12:15:53;100733.94;;;10.18;73.59
54270;BME280;40181;51.560;13.000;2024-02-21T12:18:22;100732.19;;;10.17;73.12
54270;BME280;40181;51.560;13.000;2024-02-21T12:20:54;100729.19;;;10.46;72.90
54270;BME280;40181;51.560;13.000;2024-02-21T12:23:26;100731.59;;;10.34;72.05
54270;BME280;40181;51.560;13.000;2024-02-21T12:25:55;100730.44;;;10.67;72.08
54270;BME280;40181;51.560;13.000;2024-02-21T12:28:26;100719.88;;;10.65;72.05
54270;BME280;40181;51.560;13.000;2024-02-21T12:30:55;100713.31;;;10.40;73.43
54270;BME280;40181;51.560;13.000;2024-02-21T12:33:24;100726.38;;;10.35;74.21
54270;BME280;40181;51.560;13.000;2024-02-21T12:35:56;100732.44;;;10.33;74.14
54270;BME280;40181;51.560;13.000;2024-02-21T12:38:25;100730.00;;;9.93;74.89
54270;BME280;40181;51.560;13.000;2024-02-21T12:40:54;100714.41;;;10.04;75.33
54270;BME280;40181;51.560;13.000;2024-02-21T12:43:23;100716.69;;;9.83;75.74
54270;BME280;40181;51.560;13.000;2024-02-21T12:45:52;100718.84;;;10.06;75.71
54270;BME280;40181;51.560;13.000;2024-02-21T12:48:21;100701.66;;;10.22;75.55
54270;BME280;40181;51.560;13.000;2024-02-21T12:50:50;100698.56;;;10.48;75.42
54270;BME280;40181;51.560;13.000;2024-02-21T12:53:22;100702.19;;;10.54;75.75
54270;BME280;40181;51.560;13.000;2024-02-21T12:55:51;100698.94;;;10.18;77.08
54270;BME280;40181;51.560;13.000;2024-02-21T12:58:20;100700.91;;;10.31;77.09
54270;BME280;40181;51.560;13.000;2024-02-21T13:00:49;100689.78;;;10.45;75.81
54270;BME280;40181;51.560;13.000;2024-02-21T13:03:18;100682.69;;;10.41;76.47
54270;BME280;40181;51.560;13.000;2024-02-21T13:05:47;100674.41;;;10.71;76.45